Spaulding, California
Current Conditions -  °F | °C
As of 12:55 PM on Monday 22 Dec 2014 (Local Time) from KAAT Reporting Station
Broken Clouds Broken Clouds  
Wind Chill: 52°   Ceiling: 4600
Heat Index: 52°   Visibility: 10mi
Dew Point: 43°   Wind: 14mph
Humidity: 71%   Direction: 310°NW
Pressure: 30.3"   Gusts: NA
Location:  40.5172°N, 120.68°W
Report Text: KAAT 222055Z AUTO 31012KT 10SM FEW027 SCT036 BKN046 11/06 A3030 RMK AO2 SLP246 T01110061 58009
Loading
Personal Weather Stations






























Interactive Weather Map New forecast layout! Learn more

10-Day Weather Forecast

Advertisements
Track Severe Weather on mobile